Time;durP1;ratioP1;P1;durP2;ratioP2;P2;SDS_P1;SDS_P2;PMS_P1;PMS_P2;Temp;Humidity;BMP_temperature;BMP_pressure;BME280_temperature;BME280_humidity;BME280_pressure;Samples;Min_cycle;Max_cycle;Signal;HPM_P1;HPM_P2
2022/09/05 04:47:05;;;;;;;12.50;8.30;;;;;;;;;;5533207;23;19923;-61
2022/09/05 04:49:33;;;;;;;10.32;6.85;;;;;;;;;;4857168;29;20418;-58
2022/09/05 04:52:01;;;;;;;11.77;7.43;;;;;;;;;;4859367;29;20044;-59
2022/09/05 04:54:42;;;;;;;11.32;7.68;;;;;;;;;;4859492;29;20071;-58
2022/09/05 04:57:08;;;;;;;13.75;7.18;;;;;;;;;;4859378;29;20069;-58
2022/09/05 04:59:36;;;;;;;11.70;7.85;;;;;;;;;;4859509;29;20458;-58
2022/09/05 05:02:12;;;;;;;12.63;8.45;;;;;;;;;;4858995;29;20037;-60
2022/09/05 05:04:38;;;;;;;14.52;8.07;;;;;;;;;;4859336;29;20533;-61
2022/09/05 05:07:09;;;;;;;12.07;8.43;;;;;;;;;;4859117;29;20037;-61
2022/09/05 05:09:39;;;;;;;16.13;8.45;;;;;;;;;;4858870;29;20034;-58
2022/09/05 05:12:09;;;;;;;13.93;7.88;;;;;;;;;;4859171;29;20033;-57
2022/09/05 05:14:47;;;;;;;16.30;8.40;;;;;;;;;;4858710;29;20133;-60
2022/09/05 05:17:13;;;;;;;12.15;8.02;;;;;;;;;;4858559;29;20375;-60
2022/09/05 05:19:47;;;;;;;14.18;7.70;;;;;;;;;;4858567;29;20045;-58
2022/09/05 05:22:15;;;;;;;13.77;8.25;;;;;;;;;;4858835;29;20026;-56
2022/09/05 05:24:49;;;;;;;16.55;7.57;;;;;;;;;;4858439;29;20033;-61
2022/09/05 05:27:15;;;;;;;13.20;8.40;;;;;;;;;;4856321;29;20047;-57
2022/09/05 05:29:42;;;;;;;13.23;7.63;;;;;;;;;;4858473;29;20029;-57
2022/09/05 05:32:14;;;;;;;12.75;7.28;;;;;;;;;;4858275;29;20462;-60
2022/09/05 05:34:45;;;;;;;13.73;7.55;;;;;;;;;;4858245;29;20052;-61
2022/09/05 05:37:31;;;;;;;13.10;7.70;;;;;;;;;;4855422;29;20033;-59
2022/09/05 05:40:09;;;;;;;10.15;7.13;;;;;;;;;;4856339;29;20051;-57
2022/09/05 05:42:36;;;;;;;14.82;7.35;;;;;;;;;;4856803;29;20030;-57
2022/09/05 05:45:03;;;;;;;14.02;6.88;;;;;;;;;;4858692;29;20513;-57
2022/09/05 05:47:34;;;;;;;11.52;6.35;;;;;;;;;;4858409;29;20090;-58
2022/09/05 05:50:06;;;;;;;12.13;6.28;;;;;;;;;;4858512;29;20053;-57
2022/09/05 05:52:51;;;;;;;12.75;6.60;;;;;;;;;;4858546;29;20545;-59
2022/09/05 05:55:17;;;;;;;10.77;6.95;;;;;;;;;;4858829;29;20038;-60
2022/09/05 05:57:43;;;;;;;10.88;6.38;;;;;;;;;;4858597;29;20112;-58
2022/09/05 06:00:15;;;;;;;12.40;6.28;;;;;;;;;;4858684;29;20472;-61
2022/09/05 06:02:50;;;;;;;11.95;6.68;;;;;;;;;;4858250;29;20136;-60
2022/09/05 06:05:36;;;;;;;13.45;5.78;;;;;;;;;;4858810;29;20057;-58
2022/09/05 06:08:23;;;;;;;11.88;6.15;;;;;;;;;;4837595;29;20407;-58
2022/09/05 06:10:51;;;;;;;9.93;5.75;;;;;;;;;;4765544;30;20089;-60
2022/09/05 06:13:18;;;;;;;10.38;5.50;;;;;;;;;;4765463;30;20086;-60
2022/09/05 06:15:56;;;;;;;10.48;5.75;;;;;;;;;;4765466;30;20043;-58
2022/09/05 06:18:23;;;;;;;8.55;5.47;;;;;;;;;;4764964;30;20112;-60
2022/09/05 06:21:04;;;;;;;9.15;6.18;;;;;;;;;;4765340;30;20036;-58
2022/09/05 06:23:36;;;;;;;10.85;7.65;;;;;;;;;;4765328;30;20062;-60
2022/09/05 06:26:15;;;;;;;13.10;8.00;;;;;;;;;;4765187;30;20044;-59
2022/09/05 06:29:13;;;;;;;18.13;8.75;;;;;;;;;;4764897;30;20036;-60
2022/09/05 06:31:45;;;;;;;13.75;8.68;;;;;;;;;;4729737;30;20395;-62
2022/09/05 06:34:24;;;;;;;17.20;7.32;;;;;;;;;;4729959;30;20813;-59
2022/09/05 06:37:09;;;;;;;14.02;8.20;;;;;;;;;;4730108;30;20045;-62
2022/09/05 06:39:47;;;;;;;15.43;8.63;;;;;;;;;;4729999;30;20180;-58
2022/09/05 06:42:31;;;;;;;13.38;7.45;;;;;;;;;;4732850;30;20044;-59
2022/09/05 06:45:15;;;;;;;11.38;8.07;;;;;;;;;;4747857;30;20040;-57
2022/09/05 06:47:44;;;;;;;12.13;7.43;;;;;;;;;;4782227;29;20491;-57
2022/09/05 06:50:24;;;;;;;13.05;7.93;;;;;;;;;;4804362;29;20083;-59
2022/09/05 06:53:16;;;;;;;14.13;8.65;;;;;;;;;;4804410;29;20487;-57
2022/09/05 06:55:51;;;;;;;10.88;7.88;;;;;;;;;;4804588;29;20069;-61
2022/09/05 06:58:19;;;;;;;10.85;7.28;;;;;;;;;;4804109;29;20491;-61
2022/09/05 07:00:47;;;;;;;11.13;7.07;;;;;;;;;;4804396;29;20055;-60
2022/09/05 07:03:13;;;;;;;12.05;6.85;;;;;;;;;;4804186;29;20110;-64
2022/09/05 07:05:41;;;;;;;11.25;7.28;;;;;;;;;;4804117;29;20117;-60
2022/09/05 07:08:16;;;;;;;12.60;7.55;;;;;;;;;;4852701;29;20094;-59
2022/09/05 07:10:47;;;;;;;12.88;8.48;;;;;;;;;;4860710;29;20030;-57
2022/09/05 07:13:15;;;;;;;12.23;8.05;;;;;;;;;;4860692;29;20112;-58
2022/09/05 07:15:44;;;;;;;12.43;7.93;;;;;;;;;;4860609;29;20538;-58
2022/09/05 07:18:30;;;;;;;14.38;6.47;;;;;;;;;;4860056;29;20117;-59
2022/09/05 07:20:59;;;;;;;8.65;5.78;;;;;;;;;;4858892;29;20021;-58
2022/09/05 07:23:25;;;;;;;10.48;5.93;;;;;;;;;;4859980;29;20033;-58
2022/09/05 07:25:54;;;;;;;9.65;6.47;;;;;;;;;;4860209;29;20026;-61
2022/09/05 07:28:21;;;;;;;8.85;5.97;;;;;;;;;;4860152;29;20025;-58
2022/09/05 07:30:49;;;;;;;9.48;6.10;;;;;;;;;;4860266;29;20378;-59
2022/09/05 07:33:23;;;;;;;9.60;5.78;;;;;;;;;;4860237;29;20104;-58
2022/09/05 07:35:50;;;;;;;9.75;5.90;;;;;;;;;;4860102;29;20112;-59
2022/09/05 07:38:22;;;;;;;11.40;6.32;;;;;;;;;;4859903;29;20057;-58
2022/09/05 07:40:48;;;;;;;;;;;;;;;;;;4860549;29;20420;-62
2022/09/05 07:43:34;;;;;;;9.90;5.93;;;;;;;;;;4860282;29;19919;-58
2022/09/05 07:46:00;;;;;;;9.02;5.60;;;;;;;;;;4860184;29;20068;-59
2022/09/05 07:48:28;;;;;;;9.38;6.18;;;;;;;;;;4860052;29;20085;-57
2022/09/05 07:50:59;;;;;;;10.18;7.30;;;;;;;;;;4860364;29;20042;-61
2022/09/05 07:53:26;;;;;;;10.30;6.65;;;;;;;;;;4860180;29;20025;-59
2022/09/05 07:56:01;;;;;;;9.75;6.53;;;;;;;;;;4860449;29;20033;-61
2022/09/05 07:58:40;;;;;;;11.23;7.40;;;;;;;;;;4859172;29;20052;-57
2022/09/05 08:01:06;;;;;;;13.77;7.28;;;;;;;;;;4859934;29;20533;-57
2022/09/05 08:03:32;;;;;;;11.50;7.38;;;;;;;;;;4859733;29;20033;-57
2022/09/05 08:06:00;;;;;;;10.32;7.18;;;;;;;;;;4860174;29;20032;-57
2022/09/05 08:08:46;;;;;;;14.98;7.93;;;;;;;;;;4859922;29;20398;-57
2022/09/05 08:11:14;;;;;;;10.90;7.30;;;;;;;;;;4860075;29;20042;-58
2022/09/05 08:13:44;;;;;;;11.95;7.40;;;;;;;;;;4858483;29;20029;-60
2022/09/05 08:16:11;;;;;;;10.88;6.90;;;;;;;;;;4859916;29;20033;-58
2022/09/05 08:18:52;;;;;;;10.43;7.60;;;;;;;;;;4859719;29;20073;-57
2022/09/05 08:21:22;;;;;;;14.40;8.57;;;;;;;;;;4841314;29;20503;-59
2022/09/05 08:24:08;;;;;;;11.27;7.38;;;;;;;;;;4840994;29;20034;-58
2022/09/05 08:26:40;;;;;;;11.60;8.48;;;;;;;;;;4841001;29;20026;-56
2022/09/05 08:29:07;;;;;;;;;;;;;;;;;;4841199;29;20509;-58
2022/09/05 08:31:50;;;;;;;14.43;9.70;;;;;;;;;;4843179;29;19912;-59
2022/09/05 08:34:17;;;;;;;;;;;;;;;;;;4859366;29;20036;-56
2022/09/05 08:36:47;;;;;;;12.98;7.43;;;;;;;;;;4858823;29;20002;-58
2022/09/05 08:39:19;;;;;;;15.18;9.27;;;;;;;;;;4858682;29;20031;-56
2022/09/05 08:41:50;;;;;;;12.43;9.02;;;;;;;;;;4858800;29;20026;-58
2022/09/05 08:44:37;;;;;;;11.82;8.63;;;;;;;;;;4858464;29;20037;-56
2022/09/05 08:47:22;;;;;;;13.70;9.07;;;;;;;;;;4839736;29;20041;-56
2022/09/05 08:50:06;;;;;;;12.75;8.65;;;;;;;;;;4840079;29;20402;-60
2022/09/05 08:52:38;;;;;;;11.50;7.57;;;;;;;;;;4851171;29;20044;-56
2022/09/05 08:55:16;;;;;;;15.43;8.38;;;;;;;;;;4859364;29;20045;-58
2022/09/05 08:57:45;;;;;;;11.00;7.78;;;;;;;;;;4859237;29;20459;-59
2022/09/05 09:00:16;;;;;;;9.65;7.00;;;;;;;;;;4858546;29;20073;-59
2022/09/05 09:02:59;;;;;;;11.18;7.30;;;;;;;;;;4858679;29;20157;-58
2022/09/05 09:05:44;;;;;;;9.60;7.72;;;;;;;;;;4858957;29;20539;-57
2022/09/05 09:08:11;;;;;;;12.70;8.43;;;;;;;;;;4859156;29;20029;-57
2022/09/05 09:10:44;;;;;;;13.07;8.95;;;;;;;;;;4858576;29;20060;-60
2022/09/05 09:13:10;;;;;;;;;;;;;;;;;;4859336;29;20070;-56
2022/09/05 09:15:36;;;;;;;13.80;8.77;;;;;;;;;;4859154;29;20330;-59
2022/09/05 09:18:22;;;;;;;11.23;7.85;;;;;;;;;;4858429;29;20033;-58
2022/09/05 09:20:56;;;;;;;11.73;8.45;;;;;;;;;;4858678;29;20167;-57
2022/09/05 09:23:37;;;;;;;11.88;8.70;;;;;;;;;;4859026;29;20030;-56
2022/09/05 09:26:17;;;;;;;11.38;7.95;;;;;;;;;;4858932;29;20065;-60
2022/09/05 09:28:52;;;;;;;12.05;7.88;;;;;;;;;;4858740;29;20161;-57
2022/09/05 09:31:31;;;;;;;10.95;7.53;;;;;;;;;;4858930;29;20025;-57
2022/09/05 09:34:13;;;;;;;11.63;8.20;;;;;;;;;;4858647;29;20030;-56
2022/09/05 09:36:51;;;;;;;12.15;9.20;;;;;;;;;;4858813;29;20033;-56
2022/09/05 09:39:17;;;;;;;9.68;7.30;;;;;;;;;;4858560;29;20571;-56
2022/09/05 09:42:02;;;;;;;10.30;7.68;;;;;;;;;;4858842;29;20143;-59
2022/09/05 09:44:47;;;;;;;9.70;6.80;;;;;;;;;;4858565;29;20075;-59
2022/09/05 09:47:13;;;;;;;9.65;7.03;;;;;;;;;;4858055;29;20038;-60
2022/09/05 09:49:58;;;;;;;8.98;6.88;;;;;;;;;;4858346;29;20057;-57
2022/09/05 09:52:24;;;;;;;10.50;7.30;;;;;;;;;;4858482;29;20128;-59
2022/09/05 09:55:22;;;;;;;9.35;6.70;;;;;;;;;;4858462;29;20518;-57
2022/09/05 09:58:07;;;;;;;7.90;6.53;;;;;;;;;;4831372;29;20086;-58
2022/09/05 10:00:56;;;;;;;9.82;7.10;;;;;;;;;;4819891;29;20091;-57
2022/09/05 10:03:22;;;;;;;9.10;6.45;;;;;;;;;;4823637;29;20026;-57
2022/09/05 10:05:48;;;;;;;16.30;7.65;;;;;;;;;;4819643;29;20045;-57
2022/09/05 10:08:14;;;;;;;8.45;6.32;;;;;;;;;;4819823;29;20086;-57
2022/09/05 10:10:59;;;;;;;11.43;6.70;;;;;;;;;;4819329;29;20124;-60
2022/09/05 10:13:44;;;;;;;9.73;7.20;;;;;;;;;;4819346;29;20500;-60
2022/09/05 10:16:28;;;;;;;11.82;6.82;;;;;;;;;;4834697;29;20036;-60
2022/09/05 10:19:18;;;;;;;8.98;6.57;;;;;;;;;;4841021;29;20056;-56
2022/09/05 10:21:44;;;;;;;10.77;7.43;;;;;;;;;;4823270;29;20084;-60
2022/09/05 10:24:10;;;;;;;9.65;7.10;;;;;;;;;;4822960;29;20491;-58
2022/09/05 10:26:55;;;;;;;9.85;6.90;;;;;;;;;;4822665;29;20049;-60
2022/09/05 10:29:21;;;;;;;12.63;8.40;;;;;;;;;;4822297;29;20125;-60
2022/09/05 10:31:59;;;;;;;9.45;7.30;;;;;;;;;;4822286;29;20070;-59
2022/09/05 10:34:40;;;;;;;10.13;6.65;;;;;;;;;;4840118;29;20418;-56
2022/09/05 10:37:10;;;;;;;9.27;6.53;;;;;;;;;;4860050;29;20078;-57
2022/09/05 10:39:38;;;;;;;8.77;6.75;;;;;;;;;;4860754;29;20402;-58
2022/09/05 10:42:13;;;;;;;11.43;7.03;;;;;;;;;;4861104;29;20036;-58
2022/09/05 10:44:47;;;;;;;10.43;7.57;;;;;;;;;;4861427;29;20030;-62
2022/09/05 10:47:32;;;;;;;9.52;7.20;;;;;;;;;;4860890;29;20170;-64
2022/09/05 10:50:04;;;;;;;9.35;6.65;;;;;;;;;;4860870;29;20137;-62
2022/09/05 10:52:42;;;;;;;7.25;6.13;;;;;;;;;;4860671;29;20041;-57
2022/09/05 10:55:11;;;;;;;8.73;6.80;;;;;;;;;;4861405;29;20033;-64
2022/09/05 10:57:53;;;;;;;9.77;7.18;;;;;;;;;;4861142;29;20045;-55
2022/09/05 11:00:37;;;;;;;9.68;7.32;;;;;;;;;;4861137;29;20029;-63
2022/09/05 11:03:04;;;;;;;8.57;7.32;;;;;;;;;;4858729;29;20112;-57
2022/09/05 11:05:37;;;;;;;13.70;7.72;;;;;;;;;;4860856;29;20482;-58
2022/09/05 11:08:03;;;;;;;12.80;8.15;;;;;;;;;;4861420;29;20113;-57
2022/09/05 11:10:30;;;;;;;13.52;9.57;;;;;;;;;;4860706;29;20169;-65
2022/09/05 11:12:59;;;;;;;14.50;8.45;;;;;;;;;;4860870;29;20554;-61
2022/09/05 11:15:37;;;;;;;11.35;7.85;;;;;;;;;;4860785;29;20506;-64
2022/09/05 11:18:08;;;;;;;13.88;8.40;;;;;;;;;;4860375;29;20045;-65
2022/09/05 11:20:34;;;;;;;9.80;7.28;;;;;;;;;;4859803;29;20030;-60
2022/09/05 11:23:03;;;;;;;10.23;7.53;;;;;;;;;;4859954;29;20394;-61
2022/09/05 11:25:30;;;;;;;10.75;8.65;;;;;;;;;;4859956;29;20032;-59
2022/09/05 11:27:57;;;;;;;17.25;8.80;;;;;;;;;;4859457;29;20084;-59
2022/09/05 11:30:26;;;;;;;18.25;9.95;;;;;;;;;;4859913;29;20025;-63
2022/09/05 11:33:11;;;;;;;10.25;7.82;;;;;;;;;;4859878;29;20093;-62
2022/09/05 11:35:40;;;;;;;16.15;8.45;;;;;;;;;;4860098;29;20044;-60
2022/09/05 11:38:09;;;;;;;12.15;8.05;;;;;;;;;;4859791;29;20444;-61
2022/09/05 11:40:41;;;;;;;14.73;8.18;;;;;;;;;;4860184;29;20037;-58
2022/09/05 11:43:26;;;;;;;16.80;9.10;;;;;;;;;;4860423;29;20025;-63
2022/09/05 11:46:10;;;;;;;12.25;8.82;;;;;;;;;;4860521;29;20036;-59
2022/09/05 11:48:39;;;;;;;18.25;9.02;;;;;;;;;;4859351;29;20065;-57
2022/09/05 11:51:08;;;;;;;14.43;9.40;;;;;;;;;;4860251;29;20459;-58
2022/09/05 11:53:34;;;;;;;15.50;9.50;;;;;;;;;;4860152;29;20407;-58
2022/09/05 11:56:12;;;;;;;12.55;8.38;;;;;;;;;;4860349;29;20033;-57
2022/09/05 11:58:45;;;;;;;18.35;9.85;;;;;;;;;;4860066;29;20478;-57
2022/09/05 12:01:19;;;;;;;11.30;8.00;;;;;;;;;;4860358;29;20468;-57
2022/09/05 12:04:07;;;;;;;14.57;8.88;;;;;;;;;;4860190;29;20070;-57
2022/09/05 12:06:43;;;;;;;13.07;8.40;;;;;;;;;;4823821;29;20110;-60
2022/09/05 12:09:11;;;;;;;15.00;8.73;;;;;;;;;;4820742;29;20129;-61
2022/09/05 12:11:44;;;;;;;15.00;8.63;;;;;;;;;;4820737;29;20038;-57
2022/09/05 12:14:09;;;;;;;;;;;;;;;;;;4821284;29;20149;-55
2022/09/05 12:16:44;;;;;;;13.65;8.80;;;;;;;;;;4834315;29;19921;-56
2022/09/05 12:19:17;;;;;;;16.80;11.30;;;;;;;;;;4832351;29;20054;-60
2022/09/05 12:21:45;;;;;;;19.05;11.80;;;;;;;;;;4836312;29;20511;-60
2022/09/05 12:24:29;;;;;;;14.85;10.77;;;;;;;;;;4839143;29;20054;-59
2022/09/05 12:27:07;;;;;;;11.27;8.98;;;;;;;;;;4839236;29;20430;-55
2022/09/05 12:29:40;;;;;;;16.80;10.85;;;;;;;;;;4838937;29;20597;-57
2022/09/05 12:32:12;;;;;;;13.30;10.93;;;;;;;;;;4838712;29;20454;-56
2022/09/05 12:34:49;;;;;;;13.93;8.57;;;;;;;;;;4839128;29;20044;-56
2022/09/05 12:37:19;;;;;;;15.68;10.55;;;;;;;;;;4838718;29;20050;-59
2022/09/05 12:39:48;;;;;;;14.45;10.25;;;;;;;;;;4823080;29;20034;-64
2022/09/05 12:42:20;;;;;;;15.60;10.88;;;;;;;;;;4838989;29;20049;-59
2022/09/05 12:44:57;;;;;;;14.55;10.27;;;;;;;;;;4858924;29;20037;-66
2022/09/05 12:47:24;;;;;;;12.65;8.50;;;;;;;;;;4859001;29;20137;-64
2022/09/05 12:49:55;;;;;;;11.88;8.73;;;;;;;;;;4859244;29;20052;-57
2022/09/05 12:52:32;;;;;;;12.68;8.38;;;;;;;;;;4859479;29;20080;-57
2022/09/05 12:55:06;;;;;;;9.82;7.18;;;;;;;;;;4859568;29;20128;-64
2022/09/05 12:57:33;;;;;;;11.00;7.60;;;;;;;;;;4859215;29;20477;-64
2022/09/05 13:00:22;;;;;;;11.63;7.45;;;;;;;;;;4858983;29;20117;-66
2022/09/05 13:02:52;;;;;;;12.45;7.13;;;;;;;;;;4838261;29;20133;-67
2022/09/05 13:05:22;;;;;;;9.43;7.28;;;;;;;;;;4838069;29;20614;-65
2022/09/05 13:07:55;;;;;;;11.05;7.72;;;;;;;;;;4838448;29;20076;-57
2022/09/05 13:10:44;;;;;;;12.23;7.82;;;;;;;;;;4838042;29;20041;-57
2022/09/05 13:13:13;;;;;;;9.90;7.30;;;;;;;;;;4766105;30;20046;-64
2022/09/05 13:15:42;;;;;;;12.20;7.07;;;;;;;;;;4766191;30;20071;-64
2022/09/05 13:18:13;;;;;;;11.95;7.65;;;;;;;;;;4765821;30;20062;-62
2022/09/05 13:21:01;;;;;;;12.57;7.78;;;;;;;;;;4765852;30;20126;-64
2022/09/05 13:23:45;;;;;;;13.65;8.13;;;;;;;;;;4765312;30;20032;-64
2022/09/05 13:26:25;;;;;;;11.68;8.32;;;;;;;;;;4765649;29;20124;-63
2022/09/05 13:28:52;;;;;;;15.55;8.07;;;;;;;;;;4765845;30;20088;-64
2022/09/05 13:31:39;;;;;;;14.32;8.20;;;;;;;;;;4765880;30;20651;-62
2022/09/05 13:34:10;;;;;;;15.48;8.20;;;;;;;;;;4753425;30;20136;-60
2022/09/05 13:36:40;;;;;;;11.40;8.20;;;;;;;;;;4747653;30;20049;-62
2022/09/05 13:39:16;;;;;;;13.27;9.10;;;;;;;;;;4759464;29;20059;-62
2022/09/05 13:41:44;;;;;;;12.32;8.60;;;;;;;;;;4801547;29;20073;-64
2022/09/05 13:44:12;;;;;;;9.13;7.75;;;;;;;;;;4801375;29;20046;-58
2022/09/05 13:46:38;;;;;;;10.25;7.80;;;;;;;;;;4801071;29;20034;-63
2022/09/05 13:49:35;;;;;;;11.55;8.30;;;;;;;;;;4803617;29;20142;-70
2022/09/05 13:52:03;;;;;;;10.88;8.20;;;;;;;;;;4839361;29;20387;-63
2022/09/05 13:54:36;;;;;;;12.27;7.95;;;;;;;;;;4822276;29;20058;-63
2022/09/05 13:57:02;;;;;;;;;;;;;;;;;;4825691;29;20070;-66
2022/09/05 13:59:31;;;;;;;11.68;8.48;;;;;;;;;;4841662;29;19952;-56
2022/09/05 14:02:15;;;;;;;13.35;8.45;;;;;;;;;;4841382;29;20152;-57
2022/09/05 14:05:00;;;;;;;10.80;8.55;;;;;;;;;;4841357;29;20037;-63
2022/09/05 14:07:35;;;;;;;12.63;8.18;;;;;;;;;;4839011;29;20045;-61
2022/09/05 14:10:27;;;;;;;12.48;7.80;;;;;;;;;;4830276;29;20133;-57
2022/09/05 14:13:01;;;;;;;11.93;9.15;;;;;;;;;;4795557;29;20050;-64
2022/09/05 14:15:42;;;;;;;11.60;8.80;;;;;;;;;;4822999;29;20565;-56
2022/09/05 14:18:14;;;;;;;12.13;9.00;;;;;;;;;;4835299;29;20046;-58
2022/09/05 14:23:39;;;;;;;10.60;8.55;;;;;;;;;;4841204;29;20088;-62
2022/09/05 14:26:11;;;;;;;12.57;8.88;;;;;;;;;;4841258;29;20034;-57
2022/09/05 14:28:40;;;;;;;16.95;8.68;;;;;;;;;;4850271;29;20045;-56
2022/09/05 17:12:37;;;;;;;23.20;14.43;;;;;;;;;;5119288;23;20078;-60
2022/09/05 17:15:09;;;;;;;21.73;15.07;;;;;;;;;;4934004;29;20048;-58
2022/09/05 17:17:48;;;;;;;19.65;13.85;;;;;;;;;;4934068;29;20035;-60
2022/09/05 17:20:16;;;;;;;18.23;13.43;;;;;;;;;;4933798;29;20399;-63
2022/09/05 17:22:47;;;;;;;17.05;13.25;;;;;;;;;;4933775;29;20420;-82
2022/09/05 17:25:18;;;;;;;17.42;12.90;;;;;;;;;;4933385;29;20083;-71
2022/09/05 17:27:48;;;;;;;20.80;14.50;;;;;;;;;;4933916;29;20036;-74
2022/09/05 17:30:34;;;;;;;25.10;14.98;;;;;;;;;;4934084;29;20024;-62
2022/09/05 17:33:01;;;;;;;18.42;12.88;;;;;;;;;;4933494;29;20042;-70
2022/09/05 17:35:46;;;;;;;20.50;12.85;;;;;;;;;;4934087;29;20036;-65
2022/09/05 17:38:11;;;;;;;17.27;11.65;;;;;;;;;;4916427;29;20047;-61
2022/09/05 17:40:44;;;;;;;20.65;11.95;;;;;;;;;;4933404;29;20459;-60
2022/09/05 17:43:21;;;;;;;19.35;13.43;;;;;;;;;;4934057;29;20035;-71
2022/09/05 17:45:47;;;;;;;17.95;12.77;;;;;;;;;;4934047;29;20031;-74
2022/09/05 17:48:15;;;;;;;20.60;14.10;;;;;;;;;;4933486;29;20038;-61
2022/09/05 17:50:52;;;;;;;21.40;12.82;;;;;;;;;;4933854;29;20023;-61
2022/09/05 17:53:19;;;;;;;18.63;12.80;;;;;;;;;;4933763;29;20079;-61
2022/09/05 17:55:46;;;;;;;15.95;11.55;;;;;;;;;;4933764;29;20400;-67
2022/09/05 17:58:22;;;;;;;25.17;14.20;;;;;;;;;;4933650;29;20044;-61
2022/09/05 18:00:56;;;;;;;24.27;15.98;;;;;;;;;;4933526;29;20086;-62
2022/09/05 18:03:39;;;;;;;24.88;16.88;;;;;;;;;;4933569;29;20472;-61
2022/09/05 18:06:05;;;;;;;20.70;14.00;;;;;;;;;;4933850;29;20028;-62
2022/09/05 18:08:49;;;;;;;21.00;13.50;;;;;;;;;;4933545;29;20087;-72
2022/09/05 18:11:21;;;;;;;23.30;13.90;;;;;;;;;;4930667;29;20141;-74
2022/09/05 18:13:56;;;;;;;20.63;13.55;;;;;;;;;;4914460;29;20040;-79
2022/09/05 18:16:32;;;;;;;19.13;11.80;;;;;;;;;;4914259;29;20036;-59
2022/09/05 18:19:21;;;;;;;15.52;11.25;;;;;;;;;;4914450;29;20101;-60
2022/09/05 18:21:52;;;;;;;16.50;11.35;;;;;;;;;;4914553;29;20035;-60
2022/09/05 18:24:38;;;;;;;19.20;11.98;;;;;;;;;;4914163;29;20036;-76
2022/09/05 18:27:23;;;;;;;27.45;18.80;;;;;;;;;;4914283;29;20028;-67
2022/09/05 18:30:09;;;;;;;28.33;17.77;;;;;;;;;;4914313;29;20582;-67
2022/09/05 18:32:40;;;;;;;26.95;17.80;;;;;;;;;;4897302;29;20032;-62
2022/09/05 18:35:15;;;;;;;28.63;16.48;;;;;;;;;;4914693;29;20028;-62
2022/09/05 18:37:41;;;;;;;24.77;14.68;;;;;;;;;;4916541;29;20144;-62
2022/09/05 18:40:08;;;;;;;20.30;14.63;;;;;;;;;;4918043;29;20181;-61
2022/09/05 18:42:36;;;;;;;22.60;13.90;;;;;;;;;;4917984;29;20036;-60
2022/09/05 18:45:08;;;;;;;20.58;13.15;;;;;;;;;;4917918;29;20028;-65
2022/09/05 18:47:42;;;;;;;21.85;13.38;;;;;;;;;;4917901;29;20107;-66
2022/09/05 18:50:17;;;;;;;19.75;13.85;;;;;;;;;;4917707;29;20401;-59
2022/09/05 18:52:45;;;;;;;22.35;14.85;;;;;;;;;;4917897;29;20458;-61
2022/09/05 18:55:11;;;;;;;15.90;11.40;;;;;;;;;;4918085;29;20388;-69
2022/09/05 18:57:37;;;;;;;27.15;15.88;;;;;;;;;;4917565;29;20036;-70
2022/09/05 19:00:07;;;;;;;18.48;13.23;;;;;;;;;;4917220;29;20043;-59
2022/09/05 19:02:40;;;;;;;18.23;12.73;;;;;;;;;;4917689;29;20055;-61
2022/09/05 19:05:11;;;;;;;20.05;12.57;;;;;;;;;;4917296;29;20028;-69
2022/09/05 19:07:46;;;;;;;23.35;15.00;;;;;;;;;;4917344;29;20522;-67
2022/09/05 19:10:17;;;;;;;24.50;15.73;;;;;;;;;;4917408;29;20025;-61
2022/09/05 19:12:48;;;;;;;26.75;15.45;;;;;;;;;;4916606;29;20056;-66
2022/09/05 19:15:17;;;;;;;22.10;14.73;;;;;;;;;;4917017;29;20032;-60
2022/09/05 19:17:45;;;;;;;24.33;15.20;;;;;;;;;;4917024;29;20106;-68
2022/09/05 19:20:18;;;;;;;29.63;15.80;;;;;;;;;;4916819;29;20020;-65
2022/09/05 19:22:54;;;;;;;29.88;17.00;;;;;;;;;;4917239;29;20031;-61
2022/09/05 19:25:29;;;;;;;27.67;14.73;;;;;;;;;;4917064;29;20028;-67
2022/09/05 19:27:57;;;;;;;26.05;16.90;;;;;;;;;;4916499;29;20385;-71
2022/09/05 19:30:49;;;;;;;27.65;17.92;;;;;;;;;;4916923;29;20039;-60
2022/09/05 19:33:22;;;;;;;28.50;16.40;;;;;;;;;;4913996;29;20493;-64
2022/09/05 19:35:48;;;;;;;32.33;18.75;;;;;;;;;;4916948;29;20051;-61
2022/09/05 19:38:15;;;;;;;25.02;15.82;;;;;;;;;;4916776;29;20044;-68
2022/09/05 19:40:44;;;;;;;21.30;15.13;;;;;;;;;;4916347;29;20075;-63
2022/09/05 19:43:14;;;;;;;22.95;14.55;;;;;;;;;;4916711;29;20140;-58
2022/09/05 19:45:41;;;;;;;23.13;15.52;;;;;;;;;;4916251;29;20020;-59
2022/09/05 19:48:21;;;;;;;19.15;12.82;;;;;;;;;;4915281;29;20047;-76
2022/09/05 19:50:47;;;;;;;17.42;12.68;;;;;;;;;;4909054;29;20028;-58
2022/09/05 19:53:15;;;;;;;16.27;12.85;;;;;;;;;;4915414;29;20564;-67
2022/09/05 19:55:41;;;;;;;18.83;12.02;;;;;;;;;;4913745;29;20036;-59
2022/09/05 19:58:09;;;;;;;23.17;12.85;;;;;;;;;;4915375;29;20040;-66
2022/09/05 20:00:36;;;;;;;21.98;11.52;;;;;;;;;;4914831;29;20020;-59
2022/09/05 20:03:03;;;;;;;25.85;12.63;;;;;;;;;;4913959;29;20035;-78
2022/09/05 20:05:29;;;;;;;15.30;10.52;;;;;;;;;;4914828;29;20039;-74
2022/09/05 20:07:57;;;;;;;16.15;11.32;;;;;;;;;;4915833;29;20034;-59
2022/09/05 20:10:24;;;;;;;15.43;11.10;;;;;;;;;;4916266;29;20524;-77
2022/09/05 20:12:51;;;;;;;18.73;10.80;;;;;;;;;;4916151;29;20059;-75
2022/09/05 20:15:17;;;;;;;26.23;11.82;;;;;;;;;;4916416;29;20083;-72
2022/09/05 20:17:44;;;;;;;17.00;13.07;;;;;;;;;;4916125;29;20626;-62
2022/09/05 20:20:10;;;;;;;19.17;12.05;;;;;;;;;;4898937;29;20028;-58
2022/09/05 20:22:39;;;;;;;16.70;11.32;;;;;;;;;;4916135;29;20028;-57
2022/09/05 20:25:13;;;;;;;15.38;11.32;;;;;;;;;;4915857;29;20051;-58
2022/09/05 20:27:40;;;;;;;18.65;11.35;;;;;;;;;;4916041;29;20028;-70
2022/09/05 20:30:11;;;;;;;16.40;11.38;;;;;;;;;;4915893;29;20127;-69
2022/09/05 20:32:41;;;;;;;16.05;11.68;;;;;;;;;;4915610;29;20527;-58
2022/09/05 20:35:15;;;;;;;17.23;11.50;;;;;;;;;;4915966;29;20038;-58
2022/09/05 20:37:41;;;;;;;14.57;11.82;;;;;;;;;;4915713;29;20036;-60
2022/09/05 20:40:07;;;;;;;17.48;13.10;;;;;;;;;;4915860;29;20113;-58
2022/09/05 20:42:37;;;;;;;20.20;13.15;;;;;;;;;;4915654;29;20043;-66
2022/09/05 20:45:03;;;;;;;18.45;12.80;;;;;;;;;;4915660;29;20063;-60
2022/09/05 20:47:33;;;;;;;21.15;12.70;;;;;;;;;;4915457;29;20032;-61
2022/09/05 20:50:05;;;;;;;18.77;13.80;;;;;;;;;;4915400;29;20035;-61
2022/09/05 20:52:49;;;;;;;18.10;13.50;;;;;;;;;;4914729;29;20385;-60
2022/09/05 20:55:26;;;;;;;17.27;12.27;;;;;;;;;;4912124;29;20440;-61
2022/09/05 20:57:52;;;;;;;16.98;11.55;;;;;;;;;;4913929;29;20447;-60
2022/09/05 21:00:22;;;;;;;22.23;13.93;;;;;;;;;;4913496;29;20040;-60
2022/09/05 21:02:53;;;;;;;19.55;12.00;;;;;;;;;;4913877;29;20038;-60
2022/09/05 21:05:27;;;;;;;17.63;12.07;;;;;;;;;;4914006;29;20111;-59
2022/09/05 21:08:14;;;;;;;17.77;13.25;;;;;;;;;;4911819;29;20020;-58
2022/09/05 21:10:53;;;;;;;20.35;12.77;;;;;;;;;;4915038;29;20164;-58
2022/09/05 21:13:40;;;;;;;15.88;11.25;;;;;;;;;;4911300;29;20055;-62
2022/09/05 21:16:14;;;;;;;18.35;11.27;;;;;;;;;;4914892;29;20036;-59
2022/09/05 21:18:42;;;;;;;13.90;10.82;;;;;;;;;;4915046;29;20063;-58
2022/09/05 21:21:20;;;;;;;17.95;12.27;;;;;;;;;;4915577;29;20032;-57
2022/09/05 21:23:57;;;;;;;20.58;11.98;;;;;;;;;;4914892;29;20032;-58
2022/09/05 21:26:24;;;;;;;16.35;10.93;;;;;;;;;;4919744;29;20146;-57
2022/09/05 21:29:04;;;;;;;17.20;11.95;;;;;;;;;;4923646;29;20099;-59
2022/09/05 21:31:30;;;;;;;14.88;10.88;;;;;;;;;;4922066;29;20059;-58
2022/09/05 21:33:58;;;;;;;20.40;11.65;;;;;;;;;;4923510;29;20403;-59
2022/09/05 21:36:25;;;;;;;16.40;13.15;;;;;;;;;;4923769;29;20797;-58
2022/09/05 21:38:51;;;;;;;18.05;12.40;;;;;;;;;;4922739;29;20040;-61
2022/09/05 21:41:17;;;;;;;17.02;11.70;;;;;;;;;;4922039;29;20028;-62
2022/09/05 21:43:43;;;;;;;17.42;11.10;;;;;;;;;;4919864;29;20043;-60
2022/09/05 21:46:09;;;;;;;16.58;11.48;;;;;;;;;;4921693;29;20023;-60
2022/09/05 21:48:35;;;;;;;18.85;11.00;;;;;;;;;;4922175;29;20032;-58
2022/09/05 21:51:08;;;;;;;15.20;11.10;;;;;;;;;;4921574;29;20023;-58
2022/09/05 21:53:34;;;;;;;21.65;13.80;;;;;;;;;;4914895;29;20032;-58
2022/09/05 21:56:05;;;;;;;18.92;12.77;;;;;;;;;;4914771;29;20039;-60
2022/09/05 21:58:32;;;;;;;16.38;11.10;;;;;;;;;;4928490;29;20036;-58
2022/09/05 22:00:58;;;;;;;16.45;11.70;;;;;;;;;;4934217;29;20034;-61
2022/09/05 22:03:24;;;;;;;15.20;11.10;;;;;;;;;;4932567;29;20024;-62
2022/09/05 22:05:51;;;;;;;14.05;10.52;;;;;;;;;;4931820;29;20460;-59
2022/09/05 22:08:18;;;;;;;14.07;9.65;;;;;;;;;;4927594;29;20467;-64
